Time;durP1;ratioP1;P1;durP2;ratioP2;P2;SDS_P1;SDS_P2;PMS_P1;PMS_P2;Temp;Humidity;BMP_temperature;BMP_pressure;BME280_temperature;BME280_humidity;BME280_pressure;Samples;Min_cycle;Max_cycle;Signal;HPM_P1;HPM_P2
2023/03/21 00:00:55;;;;;;;1.50;0.97;;;;;;;7.87;97.03;98929.84;4891515;29;20719;-54
2023/03/21 00:03:21;;;;;;;2.20;1.20;;;;;;;7.90;97.75;98927.84;4900073;29;20258;-52
2023/03/21 00:05:52;;;;;;;1.70;1.20;;;;;;;7.90;98.29;98927.84;4897583;29;20240;-52
2023/03/21 00:08:19;;;;;;;2.27;1.20;;;;;;;7.88;98.36;98921.09;4900424;29;20234;-51
2023/03/21 00:10:46;;;;;;;2.33;1.20;;;;;;;7.94;96.96;98918.84;4896839;29;20730;-51
2023/03/21 00:13:13;;;;;;;2.83;1.63;;;;;;;7.94;98.32;98920.59;4898229;29;20606;-54
2023/03/21 00:15:48;;;;;;;2.22;1.10;;;;;;;7.93;98.62;98914.59;4894290;29;20825;-53
2023/03/21 00:18:15;;;;;;;2.17;1.10;;;;;;;7.90;98.64;98916.59;4899909;29;20704;-53
2023/03/21 00:20:46;;;;;;;1.13;0.90;;;;;;;7.90;98.69;98914.00;4895952;29;20251;-52
2023/03/21 00:23:14;;;;;;;1.67;1.20;;;;;;;7.88;98.87;98919.34;4899813;29;20296;-52
2023/03/21 00:25:41;;;;;;;2.40;1.00;;;;;;;7.88;99.54;98918.50;4897835;29;20714;-52
2023/03/21 00:28:07;;;;;;;3.43;1.27;;;;;;;7.82;100.00;98915.47;4896796;29;21022;-52
2023/03/21 00:30:34;;;;;;;2.13;1.00;;;;;;;7.74;100.00;98922.25;4910297;29;20233;-54
2023/03/21 00:33:01;;;;;;;2.13;1.20;;;;;;;7.69;100.00;98920.00;4911694;29;20335;-54
2023/03/21 00:35:27;;;;;;;2.10;1.17;;;;;;;7.64;99.49;98923.00;4897701;29;20646;-52
2023/03/21 00:37:54;;;;;;;2.53;1.23;;;;;;;7.59;99.53;98911.31;4910230;29;20244;-55
2023/03/21 00:40:22;;;;;;;2.77;1.10;;;;;;;7.57;99.49;98918.41;4897716;29;20239;-52
2023/03/21 00:42:48;;;;;;;2.20;1.20;;;;;;;7.49;99.71;98904.25;4900826;29;20595;-55
2023/03/21 00:45:15;;;;;;;2.53;1.13;;;;;;;7.47;100.00;98906.16;4902625;29;20242;-53
2023/03/21 00:47:42;;;;;;;3.70;1.10;;;;;;;7.40;100.00;98899.84;4918730;29;20619;-53
2023/03/21 00:50:10;;;;;;;1.53;1.17;;;;;;;7.30;100.00;98894.53;4911345;29;20237;-55
2023/03/21 00:52:37;;;;;;;1.97;0.93;;;;;;;7.22;100.00;98896.94;4898565;29;20257;-53
2023/03/21 00:55:05;;;;;;;1.83;1.00;;;;;;;7.16;100.00;98887.88;4896832;29;20287;-52
2023/03/21 00:57:33;;;;;;;1.70;1.20;;;;;;;7.09;100.00;98889.31;4912307;29;20325;-53
2023/03/21 00:59:59;;;;;;;4.80;1.30;;;;;;;6.97;100.00;98883.28;4897360;29;20693;-52
2023/03/21 01:02:26;;;;;;;1.83;1.10;;;;;;;6.96;100.00;98886.84;4900587;29;20246;-53
2023/03/21 01:04:53;;;;;;;2.60;1.20;;;;;;;6.88;100.00;98884.84;4898550;29;20241;-54
2023/03/21 01:07:20;;;;;;;2.60;1.27;;;;;;;6.84;100.00;98887.84;4913622;29;20330;-53
2023/03/21 01:09:47;;;;;;;1.53;1.00;;;;;;;6.82;100.00;98879.34;4908835;29;20247;-52
2023/03/21 01:12:13;;;;;;;2.70;0.93;;;;;;;6.82;100.00;98876.75;4898143;29;20225;-54
2023/03/21 01:14:41;;;;;;;2.90;1.30;;;;;;;6.79;100.00;98876.03;4893583;29;20442;-53
2023/03/21 01:17:08;;;;;;;3.20;1.40;;;;;;;6.71;100.00;98877.56;4911832;29;20249;-52
2023/03/21 01:19:35;;;;;;;1.80;1.23;;;;;;;6.64;100.00;98870.25;4907042;29;20224;-53
2023/03/21 01:22:01;;;;;;;3.23;1.43;;;;;;;6.59;100.00;98885.34;4895122;29;20302;-54
2023/03/21 01:24:28;;;;;;;1.57;1.17;;;;;;;6.51;100.00;98877.34;4896633;29;20249;-53
2023/03/21 01:26:55;;;;;;;1.97;1.00;;;;;;;6.45;100.00;98883.84;4894659;29;20252;-54
2023/03/21 01:29:22;;;;;;;2.23;1.03;;;;;;;6.23;100.00;98873.47;4897144;29;20229;-55
2023/03/21 01:31:50;;;;;;;1.63;1.07;;;;;;;6.09;100.00;98875.31;4893477;29;20252;-51
2023/03/21 01:34:17;;;;;;;2.57;1.20;;;;;;;6.01;100.00;98875.06;4898156;29;21012;-52
2023/03/21 01:36:43;;;;;;;1.43;1.03;;;;;;;5.96;100.00;98880.59;4898506;29;20933;-52
2023/03/21 01:39:15;;;;;;;2.43;1.10;;;;;;;5.88;100.00;98880.34;4891520;29;20245;-53
2023/03/21 01:41:42;;;;;;;1.63;1.10;;;;;;;5.81;100.00;98874.78;4893750;29;20642;-52
2023/03/21 01:44:17;;;;;;;2.63;1.40;;;;;;;5.70;100.00;98875.56;4893135;29;20235;-55
2023/03/21 01:46:48;;;;;;;5.23;1.40;;;;;;;5.62;100.00;98864.94;4899165;29;20256;-53
2023/03/21 01:49:44;;;;;;;2.60;1.30;;;;;;;5.56;100.00;98866.25;4895041;29;20803;-54
2023/03/21 01:52:26;;;;;;;3.10;2.53;;;;;;;5.54;100.00;98862.94;4897544;29;20592;-52
2023/03/21 01:54:56;;;;;;;3.13;1.60;;;;;;;5.43;100.00;98855.94;4894662;29;20253;-54
2023/03/21 01:57:31;;;;;;;2.13;1.33;;;;;;;5.36;100.00;98857.31;4895335;29;20239;-55
2023/03/21 02:00:01;;;;;;;3.87;1.37;;;;;;;5.41;100.00;98857.00;4895834;29;20286;-55
2023/03/21 02:02:50;;;;;;;3.07;1.60;;;;;;;5.30;100.00;98855.22;4893000;29;20631;-54
2023/03/21 02:05:41;;;;;;;3.30;1.20;;;;;;;5.25;100.00;98850.34;4908654;29;20714;-55
2023/03/21 02:08:08;;;;;;;2.63;1.43;;;;;;;5.22;100.00;98842.00;4911843;29;20242;-53
2023/03/21 02:10:35;;;;;;;2.00;1.30;;;;;;;5.19;100.00;98844.81;4898812;29;20256;-55
2023/03/21 02:13:10;;;;;;;2.47;1.30;;;;;;;5.18;100.00;98846.56;4904594;29;20292;-55
2023/03/21 02:15:44;;;;;;;4.33;1.40;;;;;;;5.13;100.00;98849.50;4918132;29;20228;-55
2023/03/21 02:18:26;;;;;;;5.00;1.63;;;;;;;5.09;100.00;98842.88;4923141;29;20323;-55
2023/03/21 02:21:36;;;;;;;3.37;1.67;;;;;;;5.05;100.00;98840.59;4920421;29;20615;-52
2023/03/21 02:24:31;;;;;;;4.17;1.30;;;;;;;5.00;100.00;98833.19;4903476;29;20570;-54
2023/03/21 02:27:07;;;;;;;4.83;1.53;;;;;;;4.93;100.00;98832.78;4894109;29;20234;-55
2023/03/21 02:30:04;;;;;;;3.43;1.57;;;;;;;4.92;100.00;98835.50;4920801;29;20238;-56
2023/03/21 02:32:50;;;;;;;3.70;1.43;;;;;;;4.87;100.00;98838.41;4905061;29;20235;-56
2023/03/21 02:35:31;;;;;;;3.47;1.30;;;;;;;4.85;100.00;98833.34;4923300;29;20259;-56
2023/03/21 02:38:06;;;;;;;1.90;1.20;;;;;;;4.88;100.00;98835.72;4920907;29;20259;-56
2023/03/21 02:40:36;;;;;;;1.73;1.10;;;;;;;4.85;100.00;98824.75;4906855;29;20715;-54
2023/03/21 02:43:07;;;;;;;4.73;1.33;;;;;;;4.83;100.00;98827.47;4920257;29;20236;-56
2023/03/21 02:45:40;;;;;;;2.40;1.03;;;;;;;4.81;100.00;98825.91;4920563;29;20771;-54
2023/03/21 02:48:11;;;;;;;2.80;1.40;;;;;;;4.80;100.00;98822.50;4922904;29;20240;-55
2023/03/21 02:50:42;;;;;;;2.77;1.30;;;;;;;4.71;100.00;98817.97;4920351;29;20244;-55
2023/03/21 02:53:14;;;;;;;3.33;1.40;;;;;;;4.64;100.00;98816.75;4922883;29;20746;-54
2023/03/21 02:55:43;;;;;;;1.93;1.20;;;;;;;4.60;100.00;98820.50;4920638;29;20227;-56
2023/03/21 02:58:13;;;;;;;1.93;1.30;;;;;;;4.66;100.00;98814.91;4906698;29;20272;-56
2023/03/21 03:00:46;;;;;;;3.43;1.33;;;;;;;4.61;100.00;98822.16;4903078;29;20233;-55
2023/03/21 03:03:21;;;;;;;2.53;1.33;;;;;;;4.58;100.00;98815.44;4922885;29;20227;-56
2023/03/21 03:05:50;;;;;;;3.30;1.30;;;;;;;4.52;100.00;98806.34;4919313;29;20239;-53
2023/03/21 03:08:28;;;;;;;3.47;1.43;;;;;;;4.48;100.00;98804.09;4922379;29;20251;-53
2023/03/21 03:11:08;;;;;;;2.60;1.47;;;;;;;4.52;100.00;98808.94;4920500;29;20246;-56
2023/03/21 03:13:52;;;;;;;2.33;1.47;;;;;;;4.51;100.00;98807.28;4919487;29;20521;-55
2023/03/21 03:16:28;;;;;;;3.37;1.37;;;;;;;4.53;100.00;98809.78;4921506;29;20318;-54
2023/03/21 03:19:00;;;;;;;4.10;1.70;;;;;;;4.55;100.00;98800.97;4904416;29;20239;-56
2023/03/21 03:21:32;;;;;;;3.17;1.63;;;;;;;4.55;100.00;98795.78;4921468;29;20256;-53
2023/03/21 03:24:06;;;;;;;5.03;1.40;;;;;;;4.55;100.00;98795.78;4920616;29;20228;-53
2023/03/21 03:26:36;;;;;;;3.63;1.40;;;;;;;4.53;100.00;98784.72;4905731;29;20700;-55
2023/03/21 03:29:07;;;;;;;4.97;1.57;;;;;;;4.52;100.00;98785.66;4921431;29;20291;-53
2023/03/21 03:31:39;;;;;;;4.93;1.33;;;;;;;4.56;100.00;98787.09;4920471;29;20266;-54
2023/03/21 03:34:09;;;;;;;4.87;1.13;;;;;;;4.48;100.00;98784.22;4904152;29;20247;-53
2023/03/21 03:36:41;;;;;;;6.20;1.70;;;;;;;4.51;100.00;98785.78;4919036;29;20303;-54
2023/03/21 03:39:15;;;;;;;4.87;1.60;;;;;;;4.40;100.00;98794.28;4922902;29;21128;-56
2023/03/21 03:41:51;;;;;;;2.53;1.60;;;;;;;4.41;100.00;98790.75;4903127;29;20667;-53
2023/03/21 03:44:18;;;;;;;1.63;1.50;;;;;;;4.34;100.00;98792.97;4921152;29;20251;-56
2023/03/21 03:46:57;;;;;;;5.47;1.40;;;;;;;4.32;100.00;98793.97;4904410;29;20235;-55
2023/03/21 03:49:27;;;;;;;3.13;1.37;;;;;;;4.23;100.00;98788.56;4911762;29;20732;-53
2023/03/21 03:51:58;;;;;;;6.00;1.70;;;;;;;4.26;100.00;98790.88;4905174;29;20243;-53
2023/03/21 03:54:36;;;;;;;2.13;1.13;;;;;;;4.32;100.00;98788.81;4921689;29;20236;-56
2023/03/21 03:57:04;;;;;;;3.20;1.43;;;;;;;4.40;100.00;98795.13;4920132;29;20232;-56
2023/03/21 03:59:34;;;;;;;4.17;1.70;;;;;;;4.37;100.00;98787.56;4921029;29;20302;-53
2023/03/21 04:02:20;;;;;;;3.20;1.30;;;;;;;4.33;100.00;98787.88;4919449;29;20707;-54
2023/03/21 04:04:52;;;;;;;3.90;1.40;;;;;;;4.34;100.00;98789.53;4919374;29;20239;-56
2023/03/21 04:07:20;;;;;;;3.10;1.50;;;;;;;4.21;100.00;98792.16;4906087;29;20239;-56
2023/03/21 04:09:48;;;;;;;2.67;1.47;;;;;;;4.15;100.00;98793.41;4919513;29;20688;-55
2023/03/21 04:12:18;;;;;;;2.87;1.40;;;;;;;4.28;100.00;98789.03;4905196;29;20240;-56
2023/03/21 04:15:19;;;;;;;3.33;1.47;;;;;;;4.22;100.00;98791.22;4901945;29;20287;-53
2023/03/21 04:17:50;;;;;;;2.80;1.17;;;;;;;4.18;100.00;98790.63;4903489;29;20236;-55
2023/03/21 04:20:17;;;;;;;2.23;1.40;;;;;;;4.17;100.00;98790.72;4920219;29;20704;-53
2023/03/21 04:22:44;;;;;;;3.10;1.40;;;;;;;4.18;100.00;98794.94;4903418;29;20248;-55
2023/03/21 04:25:12;;;;;;;4.43;1.33;;;;;;;4.12;100.00;98791.03;4922356;29;20239;-54
2023/03/21 04:27:39;;;;;;;2.33;1.30;;;;;;;4.10;100.00;98793.72;4919113;29;20231;-56
2023/03/21 04:33:11;;;;;;;3.87;1.50;;;;;;;4.24;100.00;98791.94;4973842;23;20233;-57
2023/03/21 04:35:41;;;;;;;3.67;1.30;;;;;;;4.33;100.00;98793.91;4943998;28;20755;-56
2023/03/21 04:38:09;;;;;;;1.57;1.07;;;;;;;4.32;100.00;98789.66;4962468;28;20233;-56
2023/03/21 04:40:36;;;;;;;2.27;1.13;;;;;;;4.30;100.00;98786.34;4961529;28;20229;-57
2023/03/21 04:43:03;;;;;;;5.70;1.40;;;;;;;4.31;100.00;98787.16;4928171;29;20705;-57
2023/03/21 04:45:30;;;;;;;2.40;1.20;;;;;;;4.36;100.00;98782.50;4927242;29;20236;-57
2023/03/21 04:47:57;;;;;;;4.43;1.37;;;;;;;4.34;100.00;98785.22;4924533;29;20246;-56
2023/03/21 04:50:25;;;;;;;4.20;1.33;;;;;;;4.28;100.00;98778.69;4930545;29;20230;-55
2023/03/21 04:52:51;;;;;;;3.50;1.20;;;;;;;4.24;100.00;98790.16;4947690;28;20231;-57
2023/03/21 04:55:20;;;;;;;2.63;1.30;;;;;;;4.23;100.00;98785.13;4929093;28;20239;-57
2023/03/21 04:57:50;;;;;;;4.87;1.40;;;;;;;4.22;100.00;98778.31;4946110;29;20233;-57
2023/03/21 05:00:17;;;;;;;6.20;1.33;;;;;;;4.20;100.00;98782.75;4930886;29;20728;-57
2023/03/21 05:02:45;;;;;;;2.40;1.40;;;;;;;4.14;100.00;98776.28;4943588;28;20233;-57
2023/03/21 05:05:12;;;;;;;3.40;1.30;;;;;;;4.10;100.00;98774.81;4949501;28;20226;-56
2023/03/21 05:07:40;;;;;;;2.30;1.30;;;;;;;4.13;100.00;98770.25;4945690;28;20230;-56
2023/03/21 05:10:10;;;;;;;3.23;1.33;;;;;;;4.15;100.00;98772.75;4946929;29;20239;-57
2023/03/21 05:12:40;;;;;;;2.23;1.30;;;;;;;4.10;100.00;98772.25;4928148;29;20230;-56
2023/03/21 05:15:11;;;;;;;4.10;1.27;;;;;;;4.08;100.00;98768.94;4930799;29;20233;-58
2023/03/21 05:17:38;;;;;;;2.07;1.10;;;;;;;4.06;100.00;98770.81;4945121;28;20306;-57
2023/03/21 05:20:08;;;;;;;3.37;1.40;;;;;;;4.05;100.00;98774.31;4930159;29;20237;-56
2023/03/21 05:22:39;;;;;;;4.23;1.40;;;;;;;4.04;100.00;98773.47;4944124;28;20231;-57
2023/03/21 05:25:09;;;;;;;2.10;1.03;;;;;;;3.96;100.00;98775.75;4930591;29;20223;-57
2023/03/21 05:27:56;;;;;;;1.50;0.97;;;;;;;3.92;100.00;98771.72;4944905;28;20594;-57
2023/03/21 05:30:29;;;;;;;4.87;1.23;;;;;;;3.99;100.00;98765.22;4945384;28;20234;-56
2023/03/21 05:33:03;;;;;;;3.23;1.40;;;;;;;4.01;100.00;98772.88;4928289;29;20254;-55
2023/03/21 05:35:31;;;;;;;3.20;1.60;;;;;;;4.00;100.00;98766.88;4940207;28;20775;-55
2023/03/21 05:38:04;;;;;;;3.40;1.40;;;;;;;3.98;100.00;98769.56;4945863;29;20260;-57
2023/03/21 05:40:38;;;;;;;3.23;1.40;;;;;;;3.98;100.00;98774.72;4943619;28;20230;-56
2023/03/21 05:43:07;;;;;;;2.77;1.50;;;;;;;4.04;100.00;98768.31;4929371;29;20242;-57
2023/03/21 05:45:37;;;;;;;3.33;1.50;;;;;;;4.05;100.00;98769.16;4926565;29;20304;-56
2023/03/21 05:48:04;;;;;;;3.53;1.60;;;;;;;4.07;100.00;98770.69;4926243;29;20758;-57
2023/03/21 05:50:35;;;;;;;4.27;1.27;;;;;;;4.16;100.00;98776.97;4923622;29;20236;-57
2023/03/21 05:53:10;;;;;;;3.50;1.30;;;;;;;4.17;100.00;98770.88;4930690;29;20222;-57
2023/03/21 05:55:37;;;;;;;7.50;1.20;;;;;;;4.29;100.00;98769.19;4943717;28;20223;-57
2023/03/21 05:58:07;;;;;;;4.50;1.70;;;;;;;4.33;100.00;98764.63;4929839;29;20321;-57
2023/03/21 06:00:34;;;;;;;3.43;1.40;;;;;;;4.40;100.00;98773.59;4939991;28;20615;-56
2023/03/21 06:03:21;;;;;;;1.60;1.20;;;;;;;4.43;100.00;98775.97;4929699;29;20586;-56
2023/03/21 06:06:07;;;;;;;2.27;1.30;;;;;;;4.47;100.00;98777.41;4942960;28;21126;-57
2023/03/21 06:08:39;;;;;;;1.63;1.40;;;;;;;4.51;100.00;98780.63;4927147;28;20702;-57
2023/03/21 06:11:09;;;;;;;3.37;1.30;;;;;;;4.55;100.00;98785.44;4945836;29;20730;-56
2023/03/21 06:13:35;;;;;;;3.77;1.60;;;;;;;4.59;100.00;98783.50;4925153;29;20220;-57
2023/03/21 06:16:02;;;;;;;5.33;1.63;;;;;;;4.62;100.00;98785.84;4926609;29;20239;-57
2023/03/21 06:18:36;;;;;;;4.33;1.20;;;;;;;4.70;100.00;98786.13;4926363;29;20224;-57
2023/03/21 06:21:20;;;;;;;5.03;1.30;;;;;;;4.77;100.00;98794.28;4928590;29;20244;-57
2023/03/21 06:23:50;;;;;;;2.17;1.37;;;;;;;4.90;100.00;98794.22;4926262;29;20253;-55
2023/03/21 06:26:18;;;;;;;4.57;2.10;;;;;;;5.00;100.00;98786.63;4944830;28;20678;-57
2023/03/21 06:28:45;;;;;;;5.33;2.77;;;;;;;5.13;100.00;98789.13;4926625;29;20637;-57
2023/03/21 06:31:12;;;;;;;4.70;3.00;;;;;;;5.24;100.00;98783.19;4943620;28;20239;-57
2023/03/21 06:33:40;;;;;;;3.67;1.97;;;;;;;5.40;100.00;98788.03;4941594;28;20236;-56
2023/03/21 06:36:07;;;;;;;5.23;1.70;;;;;;;5.54;100.00;98787.84;4928350;29;20235;-57
2023/03/21 06:38:36;;;;;;;2.27;1.50;;;;;;;5.70;100.00;98779.75;4926129;29;20265;-58
2023/03/21 06:41:04;;;;;;;2.23;1.40;;;;;;;5.87;100.00;98780.22;4944726;28;20241;-57
2023/03/21 06:43:34;;;;;;;2.80;1.30;;;;;;;6.04;100.00;98779.81;4943439;29;20697;-57
2023/03/21 06:46:04;;;;;;;1.37;1.07;;;;;;;6.23;100.00;98785.31;4927618;29;20226;-56
2023/03/21 06:48:31;;;;;;;1.63;1.00;;;;;;;6.41;100.00;98777.88;4925378;29;20607;-57
2023/03/21 06:51:00;;;;;;;3.57;1.27;;;;;;;6.56;100.00;98778.44;4924606;29;20789;-57
2023/03/21 06:53:29;;;;;;;2.57;1.40;;;;;;;6.69;100.00;98773.94;4926192;29;20601;-57
2023/03/21 06:56:15;;;;;;;2.47;1.50;;;;;;;6.87;100.00;98776.00;4944661;28;20242;-57
2023/03/21 06:58:44;;;;;;;2.30;1.00;;;;;;;7.00;100.00;98768.84;4926734;29;20250;-57
2023/03/21 07:01:20;;;;;;;6.40;2.93;;;;;;;7.15;100.00;98769.41;4944452;28;20435;-57
2023/03/21 07:04:05;;;;;;;1.70;1.10;;;;;;;7.33;100.00;98771.44;4943126;28;20232;-54
2023/03/21 07:06:33;;;;;;;2.87;1.10;;;;;;;7.44;99.97;98778.34;4928805;29;20219;-54
2023/03/21 07:09:01;;;;;;;1.73;1.00;;;;;;;7.53;100.00;98764.59;4938460;29;20290;-56
2023/03/21 07:11:33;;;;;;;2.53;1.10;;;;;;;7.68;100.00;98771.09;4945368;28;20781;-55
2023/03/21 07:14:00;;;;;;;2.43;0.93;;;;;;;7.83;100.00;98768.16;4926770;29;20317;-57
2023/03/21 07:16:27;;;;;;;5.10;2.00;;;;;;;8.00;98.73;98768.47;4944193;29;20263;-56
2023/03/21 07:18:55;;;;;;;4.07;1.30;;;;;;;8.05;94.69;98771.50;4942931;28;20237;-57
2023/03/21 07:21:22;;;;;;;2.40;1.10;;;;;;;8.20;95.23;98772.00;4929412;29;20244;-56
2023/03/21 07:23:50;;;;;;;6.10;1.50;;;;;;;8.33;93.72;98766.53;4926759;29;20349;-56
2023/03/21 07:26:20;;;;;;;4.27;1.97;;;;;;;8.42;93.36;98766.59;4928825;29;20225;-55
2023/03/21 07:28:47;;;;;;;6.87;3.70;;;;;;;8.54;93.91;98758.69;4926006;28;20240;-56
2023/03/21 07:31:16;;;;;;;7.97;4.23;;;;;;;8.63;91.65;98762.25;4945856;28;20252;-54
2023/03/21 07:33:43;;;;;;;7.47;4.37;;;;;;;8.73;90.62;98751.84;4925177;29;20232;-54
2023/03/21 07:36:15;;;;;;;9.20;4.60;;;;;;;8.82;90.39;98756.25;4929226;29;20238;-56
2023/03/21 07:38:41;;;;;;;9.57;5.07;;;;;;;8.99;90.64;98758.19;4926490;29;20233;-55
2023/03/21 07:41:09;;;;;;;17.60;10.03;;;;;;;9.17;90.74;98760.09;4944548;28;20237;-55
2023/03/21 07:43:36;;;;;;;12.33;6.33;;;;;;;9.29;88.98;98753.78;4943216;28;20245;-56
2023/03/21 07:46:03;;;;;;;9.47;5.13;;;;;;;9.41;89.05;98756.22;4944423;28;20230;-56
2023/03/21 07:48:30;;;;;;;6.63;4.60;;;;;;;9.56;88.30;98759.19;4943320;29;20249;-56
2023/03/21 07:50:57;;;;;;;8.23;5.23;;;;;;;9.63;86.05;98760.28;4941491;28;20232;-56
2023/03/21 07:53:24;;;;;;;8.63;4.97;;;;;;;9.69;85.85;98762.31;4943686;28;20241;-56
2023/03/21 07:55:51;;;;;;;9.40;5.63;;;;;;;9.73;85.52;98755.84;4943992;28;20244;-56
2023/03/21 07:58:19;;;;;;;11.00;7.10;;;;;;;9.91;85.11;98765.53;4943985;28;20233;-57
2023/03/21 08:00:45;;;;;;;8.27;6.10;;;;;;;10.13;84.29;98766.97;4941670;28;20631;-56
2023/03/21 08:03:12;;;;;;;7.33;5.70;;;;;;;10.28;84.06;98771.69;4944741;28;20716;-56
2023/03/21 08:05:38;;;;;;;8.70;5.07;;;;;;;10.41;83.24;98771.38;4926002;29;20234;-56
2023/03/21 08:08:06;;;;;;;8.47;4.67;;;;;;;10.54;83.21;98773.66;4944748;28;20235;-56
2023/03/21 08:10:34;;;;;;;7.87;5.23;;;;;;;10.64;81.95;98782.22;4944747;28;20700;-57
2023/03/21 08:13:00;;;;;;;10.17;4.23;;;;;;;10.53;78.54;98785.88;4926592;29;20323;-55
2023/03/21 08:15:29;;;;;;;8.57;4.10;;;;;;;10.36;78.35;98790.06;4944933;29;20239;-56
2023/03/21 08:17:55;;;;;;;4.33;3.43;;;;;;;10.14;78.29;98792.06;4943330;29;20437;-57
2023/03/21 08:20:24;;;;;;;7.63;4.67;;;;;;;9.98;80.75;98794.47;4944610;29;20227;-55
2023/03/21 08:22:51;;;;;;;5.60;4.33;;;;;;;10.11;81.30;98789.75;4943083;28;20715;-56
2023/03/21 08:25:20;;;;;;;6.93;4.43;;;;;;;9.96;81.39;98788.56;4948204;28;20237;-55
2023/03/21 08:27:48;;;;;;;6.17;4.67;;;;;;;10.09;83.12;98789.06;4945625;28;20244;-55
2023/03/21 08:30:17;;;;;;;7.13;5.03;;;;;;;10.14;81.02;98788.63;4949479;29;20233;-57
2023/03/21 08:32:45;;;;;;;6.30;4.03;;;;;;;10.23;78.95;98790.38;4942974;28;20233;-57
2023/03/21 08:35:14;;;;;;;7.13;3.80;;;;;;;10.32;76.69;98793.91;4948299;29;20248;-57
2023/03/21 08:37:44;;;;;;;10.70;3.40;;;;;;;10.16;78.24;98792.75;4941777;29;20227;-57
2023/03/21 08:40:14;;;;;;;6.37;3.50;;;;;;;10.22;78.08;98795.75;4947625;28;20236;-57
2023/03/21 08:42:42;;;;;;;4.80;3.57;;;;;;;10.37;77.82;98789.09;4943644;28;20315;-57
2023/03/21 08:45:10;;;;;;;6.33;4.07;;;;;;;10.29;76.22;98783.78;4948040;28;20228;-56
2023/03/21 08:47:37;;;;;;;9.13;3.87;;;;;;;10.32;76.36;98797.34;4945050;28;20291;-57
2023/03/21 08:50:07;;;;;;;10.03;4.10;;;;;;;10.41;75.68;98798.31;4949162;28;20252;-56
2023/03/21 08:52:34;;;;;;;5.80;4.03;;;;;;;10.41;77.22;98793.09;4946772;28;20233;-56
2023/03/21 08:55:01;;;;;;;6.50;3.97;;;;;;;10.45;76.30;98791.81;4945622;28;20260;-56
2023/03/21 08:57:28;;;;;;;6.63;4.93;;;;;;;10.39;78.54;98791.53;4947564;28;20233;-56
2023/03/21 08:59:55;;;;;;;8.00;4.73;;;;;;;10.42;77.45;98792.13;4947037;29;20301;-57
2023/03/21 09:02:21;;;;;;;11.77;5.13;;;;;;;10.29;76.48;98792.41;4948117;28;20245;-57
2023/03/21 09:04:48;;;;;;;5.93;4.50;;;;;;;10.48;78.25;98791.53;4928975;29;20243;-56
2023/03/21 09:07:17;;;;;;;9.47;5.10;;;;;;;10.55;77.70;98789.16;4948047;29;20300;-56
2023/03/21 09:09:43;;;;;;;6.37;4.73;;;;;;;10.68;77.96;98791.38;4945339;28;21112;-56
2023/03/21 09:12:10;;;;;;;9.90;4.87;;;;;;;10.68;76.74;98790.59;4948235;28;20328;-56
2023/03/21 09:14:36;;;;;;;8.63;5.33;;;;;;;10.96;74.82;98793.94;4945785;29;20894;-57
2023/03/21 09:17:03;;;;;;;8.47;4.40;;;;;;;11.08;74.42;98787.53;4949252;29;20233;-56
2023/03/21 09:19:30;;;;;;;8.17;4.30;;;;;;;11.11;73.96;98791.66;4946455;29;20229;-57
2023/03/21 09:21:57;;;;;;;7.40;4.60;;;;;;;10.99;74.81;98798.06;4946537;28;20256;-56
2023/03/21 09:24:25;;;;;;;8.03;4.73;;;;;;;11.26;75.39;98797.16;4946465;28;20267;-57
2023/03/21 09:26:52;;;;;;;5.13;4.17;;;;;;;11.53;73.90;98792.78;4945497;28;20242;-57
2023/03/21 09:29:20;;;;;;;5.90;4.67;;;;;;;11.72;72.77;98794.38;4947066;29;20232;-56
2023/03/21 09:31:46;;;;;;;7.73;3.73;;;;;;;11.69;74.35;98797.28;4945011;29;20242;-55
2023/03/21 09:34:14;;;;;;;5.67;3.50;;;;;;;11.93;72.36;98801.03;4946385;28;20229;-54
2023/03/21 09:36:42;;;;;;;6.50;4.67;;;;;;;12.09;72.96;98797.69;4943717;29;20258;-55
2023/03/21 09:39:10;;;;;;;5.53;4.00;;;;;;;12.40;70.68;98802.41;4947606;29;20306;-55
2023/03/21 09:42:04;;;;;;;5.77;3.20;;;;;;;12.39;67.30;98798.16;4944611;29;20614;-55
2023/03/21 09:44:39;;;;;;;6.83;3.13;;;;;;;12.44;67.07;98795.88;4946354;29;21875;-54
2023/03/21 09:47:16;;;;;;;7.03;3.33;;;;;;;12.31;66.98;98804.16;4928790;29;20244;-56
2023/03/21 09:49:47;;;;;;;4.47;2.67;;;;;;;12.29;67.18;98798.28;4944794;29;20223;-56
2023/03/21 09:52:21;;;;;;;6.80;3.10;;;;;;;12.34;67.43;98798.63;4946386;28;20318;-53
2023/03/21 09:54:48;;;;;;;5.33;2.87;;;;;;;12.50;64.87;98802.28;4943392;28;20327;-54
2023/03/21 09:57:27;;;;;;;6.63;3.10;;;;;;;12.40;64.78;98807.66;4946411;29;20734;-55
2023/03/21 09:59:55;;;;;;;7.00;3.63;;;;;;;12.35;65.71;98810.72;4944441;28;20237;-57
2023/03/21 10:02:37;;;;;;;4.67;3.10;;;;;;;12.40;66.57;98816.31;4946785;28;20285;-55
2023/03/21 10:05:13;;;;;;;4.40;3.10;;;;;;;12.78;64.88;98805.44;4927112;29;20229;-56
2023/03/21 10:07:43;;;;;;;4.27;2.67;;;;;;;12.59;66.17;98801.31;4942907;29;20233;-57
2023/03/21 10:10:17;;;;;;;5.37;3.80;;;;;;;12.58;66.26;98804.13;4947244;28;20243;-56
2023/03/21 10:12:47;;;;;;;4.93;3.60;;;;;;;12.63;66.80;98794.00;4940310;29;20342;-57
2023/03/21 10:15:19;;;;;;;6.83;3.77;;;;;;;12.67;66.95;98790.88;4929054;29;20725;-57
2023/03/21 10:17:52;;;;;;;4.93;3.00;;;;;;;12.83;66.61;98787.47;4945418;28;20245;-57
2023/03/21 10:20:21;;;;;;;5.97;3.73;;;;;;;12.91;66.33;98785.84;4944979;28;20237;-54
2023/03/21 10:22:50;;;;;;;6.87;3.77;;;;;;;12.80;66.80;98786.97;4942801;28;20242;-55
2023/03/21 10:25:19;;;;;;;6.73;3.17;;;;;;;12.93;67.32;98782.09;4947290;29;20311;-56
2023/03/21 10:27:50;;;;;;;3.60;3.13;;;;;;;13.35;67.30;98780.28;4926636;28;20639;-56
2023/03/21 10:30:35;;;;;;;4.83;3.70;;;;;;;13.48;64.09;98776.38;4945637;28;20224;-56
2023/03/21 10:33:04;;;;;;;4.80;3.27;;;;;;;13.68;63.71;98775.03;4942470;29;20686;-56
2023/03/21 10:35:35;;;;;;;6.23;3.20;;;;;;;13.41;63.91;98768.31;4945488;28;20239;-55
2023/03/21 10:38:02;;;;;;;6.27;3.20;;;;;;;13.57;62.79;98770.13;4945248;29;20239;-55
2023/03/21 10:40:29;;;;;;;6.57;3.40;;;;;;;13.46;64.95;98760.78;4946288;28;20576;-56
2023/03/21 10:43:16;;;;;;;7.97;3.90;;;;;;;13.48;64.68;98750.97;4944831;29;20244;-56
2023/03/21 10:45:45;;;;;;;5.80;3.33;;;;;;;13.76;64.26;98749.78;4926744;29;21497;-56
2023/03/21 10:48:12;;;;;;;5.53;3.00;;;;;;;13.97;65.15;98752.63;4946232;28;20241;-57
2023/03/21 10:50:39;;;;;;;7.00;3.20;;;;;;;14.14;62.55;98750.78;4943274;28;20233;-57
2023/03/21 10:53:17;;;;;;;4.67;2.63;;;;;;;14.12;63.43;98746.66;4944628;28;20236;-57
2023/03/21 10:55:48;;;;;;;5.63;3.13;;;;;;;14.06;64.29;98749.97;4944156;28;20720;-56
2023/03/21 10:58:24;;;;;;;5.67;3.10;;;;;;;13.67;65.32;98741.91;4929557;28;20312;-56
2023/03/21 11:00:56;;;;;;;3.73;2.70;;;;;;;13.94;63.04;98741.66;4943363;29;20241;-57
2023/03/21 11:03:28;;;;;;;4.37;2.97;;;;;;;13.76;65.18;98737.47;4945768;28;20726;-57
2023/03/21 11:05:59;;;;;;;4.90;2.80;;;;;;;13.90;62.92;98728.06;4926086;29;20243;-57
2023/03/21 11:08:26;;;;;;;5.33;3.10;;;;;;;13.90;63.18;98727.25;4944644;29;20236;-57
2023/03/21 11:11:01;;;;;;;3.50;2.67;;;;;;;14.08;62.32;98735.72;4925779;28;20372;-57
2023/03/21 11:13:37;;;;;;;3.50;2.87;;;;;;;14.08;62.83;98729.63;4944005;28;20706;-57
2023/03/21 11:16:07;;;;;;;4.55;2.70;;;;;;;14.50;62.21;98731.06;4942626;29;20542;-56
2023/03/21 11:18:40;;;;;;;4.40;2.73;;;;;;;14.49;61.48;98733.84;4945276;28;20219;-56
2023/03/21 11:21:09;;;;;;;4.50;2.80;;;;;;;14.43;60.83;98725.66;4944531;28;20239;-57
2023/03/21 11:23:42;;;;;;;4.10;2.67;;;;;;;14.73;60.92;98727.66;4942146;28;20708;-56
2023/03/21 11:26:11;;;;;;;5.20;2.70;;;;;;;14.72;60.20;98723.41;4944426;29;20225;-57
2023/03/21 11:28:43;;;;;;;9.17;3.37;;;;;;;14.96;60.11;98726.81;4942755;29;20588;-56
2023/03/21 11:31:10;;;;;;;3.90;2.70;;;;;;;14.95;59.54;98722.53;4945268;28;20584;-55
2023/03/21 11:33:40;;;;;;;5.53;2.27;;;;;;;15.15;59.67;98717.63;4942412;28;20573;-55
2023/03/21 11:36:25;;;;;;;4.93;2.30;;;;;;;14.96;58.99;98717.13;4944641;29;20658;-57
2023/03/21 11:38:53;;;;;;;2.37;2.10;;;;;;;14.71;60.13;98713.88;4942757;29;20646;-57
2023/03/21 11:41:23;;;;;;;4.80;2.40;;;;;;;14.70;59.75;98705.16;4943829;28;20245;-57
2023/03/21 11:43:54;;;;;;;3.03;2.20;;;;;;;14.71;59.66;98703.38;4942783;28;20244;-56
2023/03/21 11:46:24;;;;;;;3.00;2.30;;;;;;;15.03;58.40;98704.91;4928045;29;20226;-57
2023/03/21 11:48:51;;;;;;;3.87;1.87;;;;;;;14.89;58.90;98693.34;4941907;29;20237;-56
2023/03/21 11:51:26;;;;;;;2.53;1.83;;;;;;;15.12;56.51;98689.06;4926977;28;20725;-57
2023/03/21 11:54:06;;;;;;;2.70;1.93;;;;;;;15.01;57.50;98693.75;4941519;28;20232;-57